createdAt,value
2018-12-02T00:01:14.185Z,99811.00
2018-12-02T00:06:17.503Z,99804.64
2018-12-02T00:11:20.816Z,99797.58
2018-12-02T00:16:24.135Z,99791.22
2018-12-02T00:21:27.445Z,99780.27
2018-12-02T00:26:30.754Z,99773.56
2018-12-02T00:31:34.056Z,99766.35
2018-12-02T00:36:37.358Z,99762.67
2018-12-02T00:41:40.709Z,99754.91
2018-12-02T00:46:44.025Z,99761.09
2018-12-02T00:51:47.355Z,99747.42
2018-12-02T00:56:50.667Z,99746.92
2018-12-02T01:01:53.978Z,99745.58
2018-12-02T01:06:57.290Z,99733.01
2018-12-02T01:12:00.595Z,99726.44
2018-12-02T01:17:03.918Z,99726.30
2018-12-02T01:22:07.222Z,99725.94
2018-12-02T01:27:10.534Z,99718.73
2018-12-02T01:32:13.847Z,99704.61
2018-12-02T01:37:17.262Z,99697.75
2018-12-02T01:42:20.635Z,99694.71
2018-12-02T01:47:23.947Z,99685.31
2018-12-02T01:52:27.246Z,99679.95
2018-12-02T01:57:30.557Z,99666.77
2018-12-02T02:02:33.863Z,99666.37
2018-12-02T02:07:37.167Z,99651.12
2018-12-02T02:12:40.482Z,99643.35
2018-12-02T02:17:43.918Z,99633.46
2018-12-02T02:22:47.410Z,99629.44
2018-12-02T02:27:55.087Z,99620.33
2018-12-02T02:32:58.494Z,99621.17
2018-12-02T02:38:01.817Z,99611.63
2018-12-02T02:43:05.185Z,99607.89
2018-12-02T02:48:08.467Z,99593.27
2018-12-02T02:53:11.806Z,99587.45
2018-12-02T02:58:15.138Z,99585.62
2018-12-02T03:03:18.435Z,99580.53
2018-12-02T03:08:21.734Z,99579.41
2018-12-02T03:13:25.017Z,99572.48
2018-12-02T03:18:28.333Z,99563.73
2018-12-02T03:23:31.631Z,99553.48
2018-12-02T03:28:35.014Z,99552.50
2018-12-02T03:33:38.343Z,99541.31
2018-12-02T03:38:41.650Z,99534.75
2018-12-02T03:43:44.938Z,99530.58
2018-12-02T03:48:48.237Z,99535.25
2018-12-02T03:53:51.523Z,99524.66
2018-12-02T03:58:54.830Z,99518.94
2018-12-02T04:03:58.130Z,99503.19
2018-12-02T04:09:01.418Z,99489.28
2018-12-02T04:14:05.010Z,99486.39
2018-12-02T04:19:08.295Z,99464.33
2018-12-02T04:24:11.580Z,99456.63
2018-12-02T04:29:14.874Z,99465.88
2018-12-02T04:34:18.184Z,99451.41
2018-12-02T04:39:21.511Z,99443.07
2018-12-02T04:44:24.798Z,99427.27
2018-12-02T04:49:28.101Z,99411.81
2018-12-02T04:54:31.414Z,99412.66
2018-12-02T04:59:34.713Z,99384.77
2018-12-02T05:04:37.998Z,99384.98
2018-12-02T05:09:41.319Z,99375.23
2018-12-02T05:14:44.607Z,99371.56
2018-12-02T05:19:47.911Z,99356.16
2018-12-02T05:24:51.208Z,99365.20
2018-12-02T05:29:54.504Z,99355.77
2018-12-02T05:34:57.794Z,99349.32
2018-12-02T05:40:01.099Z,99345.99
2018-12-02T05:45:04.829Z,99357.52
2018-12-02T05:50:23.833Z,99359.34
2018-12-02T05:55:29.410Z,99341.56
2018-12-02T06:00:32.715Z,99328.80
2018-12-02T06:05:36.018Z,99329.41
2018-12-02T06:10:39.306Z,99336.12
2018-12-02T06:15:42.658Z,99334.52
2018-12-02T06:20:45.959Z,99327.66
2018-12-02T06:25:49.272Z,99326.38
2018-12-02T06:30:52.589Z,99322.34
2018-12-02T06:35:55.889Z,99319.05
2018-12-02T06:40:59.186Z,99306.89
2018-12-02T06:46:02.643Z,99307.20
2018-12-02T06:51:06.441Z,99305.41
2018-12-02T06:56:12.747Z,99295.13
2018-12-02T07:01:23.703Z,99267.23
2018-12-02T07:06:27.132Z,99257.22
2018-12-02T07:11:31.443Z,99266.77
2018-12-02T07:16:34.791Z,99266.25
2018-12-02T07:21:38.114Z,99271.18
2018-12-02T07:26:41.452Z,99249.18
2018-12-02T07:31:44.762Z,99255.66
2018-12-02T07:36:48.087Z,99246.91
2018-12-02T07:41:51.452Z,99248.69
2018-12-02T07:46:54.785Z,99231.41
2018-12-02T07:51:58.127Z,99232.61
2018-12-02T07:57:01.451Z,99230.05
2018-12-02T08:02:04.986Z,99238.82
2018-12-02T08:07:08.315Z,99223.69
2018-12-02T08:12:11.659Z,99211.03
2018-12-02T08:17:14.990Z,99197.29
2018-12-02T08:22:18.333Z,99205.97
2018-12-02T08:27:21.667Z,99199.10
2018-12-02T08:32:24.975Z,99182.34
2018-12-02T08:37:28.315Z,99172.47
2018-12-02T08:42:31.650Z,99164.95
2018-12-02T08:47:34.970Z,99158.69
2018-12-02T08:52:38.302Z,99149.26
2018-12-02T08:57:41.631Z,99145.53
2018-12-02T09:02:47.251Z,99131.41
2018-12-02T09:07:50.784Z,99130.34
2018-12-02T09:12:56.508Z,99124.59
2018-12-02T09:17:59.867Z,99116.32
2018-12-02T09:23:03.638Z,99116.77
2018-12-02T09:28:08.187Z,99107.53
2018-12-02T09:33:11.492Z,99103.70
2018-12-02T09:38:14.794Z,99097.58
2018-12-02T09:43:18.111Z,99096.88
2018-12-02T09:48:21.403Z,99091.46
2018-12-02T09:53:24.695Z,99083.89
2018-12-02T09:58:29.400Z,99081.77
2018-12-02T10:03:32.702Z,99074.58
2018-12-02T10:08:35.991Z,99056.77
2018-12-02T10:13:39.290Z,99049.73
2018-12-02T10:18:42.578Z,99039.16
2018-12-02T10:23:45.867Z,99031.72
2018-12-02T10:28:49.162Z,99020.92
2018-12-02T10:33:52.567Z,99013.19
2018-12-02T10:38:55.885Z,99005.92
2018-12-02T10:43:59.178Z,98995.84
2018-12-02T10:49:02.508Z,98991.18
2018-12-02T10:54:05.855Z,98983.91
2018-12-02T10:59:09.162Z,98969.81
2018-12-02T11:04:12.473Z,98978.12
2018-12-02T11:09:15.787Z,98967.44
2018-12-02T11:14:19.098Z,98954.72
2018-12-02T11:19:22.390Z,98955.87
2018-12-02T11:24:25.686Z,98952.38
2018-12-02T11:29:28.990Z,98942.56
2018-12-02T11:34:32.283Z,98951.73
2018-12-02T11:39:35.574Z,98936.80
2018-12-02T11:44:38.914Z,98937.11
2018-12-02T11:49:42.211Z,98928.56
2018-12-02T11:54:45.503Z,98918.69
2018-12-02T11:59:48.807Z,98917.69
2018-12-02T12:04:52.103Z,98909.30
2018-12-02T12:09:55.442Z,98923.95
2018-12-02T12:14:58.807Z,98911.64
2018-12-02T12:20:02.193Z,98909.70
2018-12-02T12:25:07.339Z,98888.21
2018-12-02T12:30:18.766Z,98881.10
2018-12-02T12:35:22.272Z,98871.50
2018-12-02T12:40:31.823Z,98876.16
2018-12-02T12:45:35.134Z,98873.73
2018-12-02T12:50:38.444Z,98873.20
2018-12-02T12:55:41.739Z,98870.31
2018-12-02T13:00:45.060Z,98867.34
2018-12-02T13:05:48.434Z,98864.59
2018-12-02T13:10:51.762Z,98854.62
2018-12-02T13:15:55.089Z,98857.80
2018-12-02T13:20:58.404Z,98858.79
2018-12-02T13:26:01.732Z,98847.19
2018-12-02T13:31:05.330Z,98846.47
2018-12-02T13:36:08.634Z,98819.39
2018-12-02T13:41:11.950Z,98832.39
2018-12-02T13:46:15.263Z,98836.26
2018-12-02T13:51:18.565Z,98816.88
2018-12-02T13:56:23.113Z,98817.86
2018-12-02T14:01:25.288Z,98812.78
2018-12-02T14:06:28.626Z,98818.67
2018-12-02T14:11:31.947Z,98816.86
2018-12-02T14:17:11.779Z,98813.28
2018-12-02T14:22:15.086Z,98810.60
2018-12-02T14:27:18.398Z,98814.94
2018-12-02T14:32:22.719Z,98824.81
2018-12-02T14:37:26.039Z,98822.28
2018-12-02T14:42:29.371Z,98824.25
2018-12-02T14:47:32.677Z,98825.25
2018-12-02T14:52:35.990Z,98817.70
2018-12-02T14:57:39.343Z,98816.52
2018-12-02T15:02:42.670Z,98806.49
2018-12-02T15:07:45.975Z,98797.70
2018-12-02T15:12:49.488Z,98808.86
2018-12-02T15:17:52.806Z,98804.86
2018-12-02T15:22:56.162Z,98813.41
2018-12-02T15:27:59.460Z,98818.27
2018-12-02T15:33:02.775Z,98825.63
2018-12-02T15:38:06.527Z,98826.43
2018-12-02T15:43:09.995Z,98818.83
2018-12-02T15:48:13.319Z,98820.67
2018-12-02T15:53:16.655Z,98824.84
2018-12-02T15:58:20.187Z,98824.00
2018-12-02T16:03:23.544Z,98823.47
2018-12-02T16:08:26.981Z,98824.09
2018-12-02T16:13:30.279Z,98829.52
2018-12-02T16:18:33.581Z,98836.81
2018-12-02T16:23:36.918Z,98833.16
2018-12-02T16:28:40.218Z,98836.75
2018-12-02T16:33:43.539Z,98835.56
2018-12-02T16:38:46.834Z,98832.38
2018-12-02T16:43:50.162Z,98832.04
2018-12-02T16:48:53.466Z,98833.31
2018-12-02T16:53:56.804Z,98838.09
2018-12-02T16:59:36.266Z,98833.01
2018-12-02T17:04:39.790Z,98834.84
2018-12-02T17:09:43.105Z,98832.48
2018-12-02T17:14:46.425Z,98847.71
2018-12-02T17:19:49.755Z,98855.02
2018-12-02T17:24:53.057Z,98853.58
2018-12-02T17:29:56.374Z,98866.56
2018-12-02T17:34:59.745Z,98866.58
2018-12-02T17:40:03.086Z,98871.52
2018-12-02T17:45:07.946Z,98869.33
2018-12-02T17:50:12.966Z,98871.73
2018-12-02T17:55:16.284Z,98871.66
2018-12-02T18:00:22.338Z,98875.04
2018-12-02T18:05:27.278Z,98881.75
2018-12-02T18:10:30.615Z,98883.27
2018-12-02T18:15:33.926Z,98877.06
2018-12-02T18:20:37.277Z,98880.41
2018-12-02T18:25:40.586Z,98880.00
2018-12-02T18:30:43.937Z,98887.16
2018-12-02T18:35:54.843Z,98879.72
2018-12-02T18:41:03.062Z,98880.30
2018-12-02T18:46:07.179Z,98887.45
2018-12-02T18:51:10.568Z,98894.15
2018-12-02T18:56:16.506Z,98891.80
2018-12-02T19:01:17.283Z,98898.52
2018-12-02T19:06:20.598Z,98904.23
2018-12-02T19:11:23.923Z,98902.50
2018-12-02T19:16:27.240Z,98901.03
2018-12-02T19:21:31.397Z,98901.70
2018-12-02T19:26:34.710Z,98905.30
2018-12-02T19:31:38.037Z,98914.02
2018-12-02T19:36:48.087Z,98909.88
2018-12-02T19:41:51.384Z,98910.01
2018-12-02T19:46:55.194Z,98907.98
2018-12-02T19:51:58.507Z,98915.69
2018-12-02T19:57:01.814Z,98908.66
2018-12-02T20:02:05.460Z,98916.05
2018-12-02T20:07:08.784Z,98917.88
2018-12-02T20:12:12.385Z,98913.14
2018-12-02T20:17:15.425Z,98921.42
2018-12-02T20:22:18.726Z,98926.51
2018-12-02T20:27:22.033Z,98928.52
2018-12-02T20:32:25.317Z,98934.39
2018-12-02T20:37:28.675Z,98938.08
2018-12-02T20:42:32.523Z,98949.80
2018-12-02T20:47:35.835Z,98943.56
2018-12-02T20:52:39.148Z,98941.22
2018-12-02T20:57:42.507Z,98948.27
2018-12-02T21:02:50.716Z,98953.62
2018-12-02T21:07:54.027Z,98960.84
2018-12-02T21:12:57.389Z,98950.20
2018-12-02T21:18:00.713Z,98951.54
2018-12-02T21:23:04.047Z,98955.41
2018-12-02T21:28:08.490Z,98957.54
2018-12-02T21:33:11.829Z,98953.38
2018-12-02T21:38:15.133Z,98947.78
2018-12-02T21:43:18.471Z,98960.22
2018-12-02T21:48:22.177Z,98956.86
2018-12-02T21:53:25.474Z,98954.52
2018-12-02T21:58:28.778Z,98956.52
2018-12-02T22:03:32.087Z,98955.97
2018-12-02T22:08:35.390Z,98957.18
2018-12-02T22:13:43.388Z,98963.39
2018-12-02T22:18:42.080Z,98964.73
2018-12-02T22:23:45.387Z,98971.73
2018-12-02T22:28:48.712Z,98971.95
2018-12-02T22:33:52.014Z,98970.78
2018-12-02T22:38:55.311Z,98972.58
2018-12-02T22:43:58.613Z,98961.20
2018-12-02T22:49:01.927Z,98961.78
2018-12-02T22:54:05.415Z,98954.39
2018-12-02T22:59:08.735Z,98950.88
2018-12-02T23:04:12.075Z,98941.91
2018-12-02T23:09:15.386Z,98935.60
2018-12-02T23:14:18.693Z,98929.06
2018-12-02T23:19:22.026Z,98928.91
2018-12-02T23:24:25.340Z,98914.46
2018-12-02T23:29:28.668Z,98910.94
2018-12-02T23:34:32.091Z,98915.45
2018-12-02T23:39:35.409Z,98914.78
2018-12-02T23:44:38.754Z,98909.08
2018-12-02T23:49:42.066Z,98907.41
2018-12-02T23:54:45.411Z,98906.89
2018-12-02T23:59:48.713Z,98900.47
